createdAt,value
2022-09-24T00:00:14.291Z,12.1
2022-09-24T00:01:20.450Z,12.1
2022-09-24T00:02:26.787Z,12.5
2022-09-24T00:03:32.880Z,12.1
2022-09-24T00:04:39.224Z,12.1
2022-09-24T00:05:44.479Z,11.8
2022-09-24T00:06:50.733Z,11.8
2022-09-24T00:07:56.902Z,12.5
2022-09-24T00:09:03.117Z,12.1
2022-09-24T00:10:09.349Z,12.1
2022-09-24T00:11:15.661Z,12.1
2022-09-24T00:12:21.786Z,11.8
2022-09-24T00:13:28.105Z,12.5
2022-09-24T00:14:34.211Z,12.1
2022-09-24T00:15:40.442Z,11.8
2022-09-24T00:16:46.649Z,12.5
2022-09-24T00:17:52.883Z,12.5
2022-09-24T00:18:59.110Z,12.5
2022-09-24T00:20:05.320Z,12.1
2022-09-24T00:21:11.553Z,11.8
2022-09-24T00:22:17.818Z,12.1
2022-09-24T00:23:23.990Z,12.8
2022-09-24T00:24:30.202Z,12.1
2022-09-24T00:25:36.422Z,11.8
2022-09-24T00:26:42.635Z,11.8
2022-09-24T00:27:48.862Z,12.1
2022-09-24T00:28:55.086Z,12.1
2022-09-24T00:30:01.303Z,12.1
2022-09-24T00:31:07.538Z,11.5
2022-09-24T00:32:13.736Z,12.1
2022-09-24T00:33:20.050Z,11.8
2022-09-24T00:34:25.312Z,12.8
2022-09-24T00:35:31.550Z,12.1
2022-09-24T00:36:37.744Z,12.5
2022-09-24T00:37:43.975Z,12.8
2022-09-24T00:38:50.183Z,12.1
2022-09-24T00:39:56.407Z,12.5
2022-09-24T00:41:02.660Z,11.8
2022-09-24T00:42:08.837Z,12.5
2022-09-24T00:43:15.045Z,12.5
2022-09-24T00:44:21.292Z,12.1
2022-09-24T00:45:27.471Z,11.8
2022-09-24T00:46:33.694Z,12.1
2022-09-24T00:47:39.915Z,12.1
2022-09-24T00:48:46.157Z,11.5
2022-09-24T00:49:52.356Z,12.1
2022-09-24T00:50:58.571Z,12.1
2022-09-24T00:52:04.793Z,12.1
2022-09-24T00:53:11.049Z,12.1
2022-09-24T00:54:17.259Z,12.1
2022-09-24T00:55:23.467Z,11.8
2022-09-24T00:56:29.743Z,12.5
2022-09-24T00:57:35.896Z,12.1
2022-09-24T00:58:42.123Z,12.1
2022-09-24T00:59:48.330Z,11.8
2022-09-24T01:00:54.555Z,12.1
2022-09-24T01:02:00.896Z,12.1
2022-09-24T01:03:06.143Z,12.1
2022-09-24T01:04:12.364Z,12.5
2022-09-24T01:05:18.576Z,11.8
2022-09-24T01:06:24.811Z,12.1
2022-09-24T01:07:31.003Z,12.1
2022-09-24T01:08:37.229Z,12.1
2022-09-24T01:09:43.454Z,12.1
2022-09-24T01:10:49.663Z,12.1
2022-09-24T01:11:55.879Z,12.5
2022-09-24T01:13:02.142Z,11.5
2022-09-24T01:14:08.367Z,12.1
2022-09-24T01:15:14.535Z,12.1
2022-09-24T01:16:20.766Z,12.1
2022-09-24T01:17:26.982Z,12.5
2022-09-24T01:18:33.266Z,11.8
2022-09-24T01:19:39.421Z,11.8
2022-09-24T01:20:45.633Z,12.5
2022-09-24T01:21:51.865Z,12.1
2022-09-24T01:22:58.076Z,12.1
2022-09-24T01:24:04.300Z,12.1
2022-09-24T01:25:10.541Z,11.8
2022-09-24T01:26:16.734Z,12.1
2022-09-24T01:27:22.950Z,12.1
2022-09-24T01:28:29.213Z,12.1
2022-09-24T01:29:35.414Z,11.8
2022-09-24T01:30:41.694Z,12.1
2022-09-24T01:31:46.970Z,11.8
2022-09-24T01:32:53.192Z,11.8
2022-09-24T01:33:59.437Z,11.8
2022-09-24T01:35:05.663Z,11.8
2022-09-24T01:36:11.937Z,11.8
2022-09-24T01:37:18.124Z,12.5
2022-09-24T01:38:24.286Z,11.8
2022-09-24T01:39:30.511Z,12.1
2022-09-24T01:40:36.719Z,11.8
2022-09-24T01:41:42.938Z,12.1
2022-09-24T01:42:49.158Z,11.8
2022-09-24T01:43:55.375Z,11.8
2022-09-24T01:45:01.589Z,12.1
2022-09-24T01:46:07.822Z,12.1
2022-09-24T01:47:14.024Z,11.8
2022-09-24T01:48:20.246Z,12.1
2022-09-24T01:49:26.463Z,12.5
2022-09-24T01:50:32.686Z,12.1
2022-09-24T01:51:38.900Z,12.1
2022-09-24T01:52:45.124Z,12.1
2022-09-24T01:53:51.329Z,11.8
2022-09-24T01:54:57.570Z,12.1
2022-09-24T01:56:03.774Z,11.5
2022-09-24T01:57:09.991Z,12.5
2022-09-24T01:58:16.219Z,12.1
2022-09-24T01:59:22.519Z,12.1
2022-09-24T02:00:27.845Z,12.5
2022-09-24T02:01:34.027Z,12.1
2022-09-24T02:02:40.232Z,11.8
2022-09-24T02:03:46.462Z,12.5
2022-09-24T02:04:52.682Z,12.1
2022-09-24T02:05:58.916Z,11.5
2022-09-24T02:07:05.169Z,12.1
2022-09-24T02:08:11.349Z,11.8
2022-09-24T02:09:17.553Z,12.5
2022-09-24T02:10:23.772Z,11.8
2022-09-24T02:11:29.991Z,12.1
2022-09-24T02:12:36.206Z,12.5
2022-09-24T02:13:42.429Z,11.5
2022-09-24T02:14:48.646Z,12.1
2022-09-24T02:15:54.875Z,12.1
2022-09-24T02:17:01.132Z,11.8
2022-09-24T02:18:07.305Z,12.1
2022-09-24T02:19:13.519Z,12.1
2022-09-24T02:20:19.740Z,12.5
2022-09-24T02:21:25.987Z,11.5
2022-09-24T02:22:32.183Z,12.1
2022-09-24T02:23:38.389Z,12.1
2022-09-24T02:24:44.617Z,12.1
2022-09-24T02:25:50.825Z,11.8
2022-09-24T02:26:57.030Z,12.1
2022-09-24T02:28:03.328Z,12.1
2022-09-24T02:29:08.613Z,12.1
2022-09-24T02:30:14.833Z,12.1
2022-09-24T02:31:21.062Z,12.5
2022-09-24T02:32:27.283Z,12.1
2022-09-24T02:33:33.496Z,11.8
2022-09-24T02:34:39.715Z,11.8
2022-09-24T02:35:45.924Z,12.1
2022-09-24T02:36:52.141Z,11.8
2022-09-24T02:37:58.373Z,12.1
2022-09-24T02:39:04.578Z,11.8
2022-09-24T02:40:10.792Z,12.1
2022-09-24T02:41:17.023Z,12.1
2022-09-24T02:42:23.239Z,11.8
2022-09-24T02:43:29.468Z,12.5
2022-09-24T02:44:35.698Z,12.1
2022-09-24T02:45:41.910Z,12.1
2022-09-24T02:46:48.207Z,12.1
2022-09-24T02:47:54.354Z,11.8
2022-09-24T02:49:00.582Z,11.8
2022-09-24T02:50:06.822Z,12.5
2022-09-24T02:51:13.059Z,12.1
2022-09-24T02:52:19.246Z,11.5
2022-09-24T02:53:25.468Z,12.1
2022-09-24T02:54:31.676Z,11.5
2022-09-24T02:55:37.959Z,11.8
2022-09-24T02:56:44.206Z,12.1
2022-09-24T02:57:49.496Z,12.1
2022-09-24T02:58:55.705Z,11.8
2022-09-24T03:00:01.930Z,11.8
2022-09-24T03:01:08.152Z,11.8
2022-09-24T03:02:14.377Z,11.8
2022-09-24T03:03:20.609Z,11.8
2022-09-24T03:04:26.811Z,12.1
2022-09-24T03:05:33.039Z,11.8
2022-09-24T03:06:39.248Z,12.1
2022-09-24T03:07:45.523Z,12.1
2022-09-24T03:08:51.697Z,12.1
2022-09-24T03:09:57.923Z,11.5
2022-09-24T03:11:04.140Z,11.8
2022-09-24T03:12:10.380Z,11.5
2022-09-24T03:13:16.634Z,12.1
2022-09-24T03:14:22.868Z,11.5
2022-09-24T03:15:29.053Z,11.5
2022-09-24T03:16:35.268Z,11.8
2022-09-24T03:17:41.501Z,11.8
2022-09-24T03:18:47.715Z,11.8
2022-09-24T03:19:53.954Z,11.8
2022-09-24T03:21:00.147Z,11.5
2022-09-24T03:22:06.390Z,11.8
2022-09-24T03:23:12.681Z,11.5
2022-09-24T03:24:18.823Z,11.8
2022-09-24T03:25:25.112Z,11.5
2022-09-24T03:26:30.437Z,12.5
2022-09-24T03:27:36.626Z,12.1
2022-09-24T03:28:42.869Z,11.8
2022-09-24T03:29:49.070Z,11.8
2022-09-24T03:30:55.301Z,12.1
2022-09-24T03:32:01.514Z,11.8
2022-09-24T03:33:07.754Z,12.1
2022-09-24T03:34:13.950Z,11.5
2022-09-24T03:35:20.208Z,12.1
2022-09-24T03:36:26.430Z,11.8
2022-09-24T03:37:32.636Z,11.8
2022-09-24T03:38:38.857Z,11.5
2022-09-24T03:39:45.085Z,11.8
2022-09-24T03:40:51.299Z,12.1
2022-09-24T03:41:57.522Z,12.1
2022-09-24T03:43:03.752Z,12.1
2022-09-24T03:44:09.982Z,11.8
2022-09-24T03:45:16.227Z,12.1
2022-09-24T03:46:22.430Z,12.1
2022-09-24T03:47:28.669Z,12.1
2022-09-24T03:48:34.908Z,11.5
2022-09-24T03:49:41.185Z,12.1
2022-09-24T03:50:47.362Z,11.5
2022-09-24T03:51:53.566Z,11.5
2022-09-24T03:52:59.788Z,11.8
2022-09-24T03:54:06.144Z,11.8
2022-09-24T03:55:11.419Z,11.8
2022-09-24T03:56:17.619Z,12.8
2022-09-24T03:57:23.871Z,11.8
2022-09-24T03:58:30.139Z,11.5
2022-09-24T03:59:36.343Z,11.8
2022-09-24T04:00:42.558Z,11.8
2022-09-24T04:01:48.788Z,12.1
2022-09-24T04:02:55.020Z,12.1
2022-09-24T04:04:01.318Z,12.1
2022-09-24T04:05:07.481Z,11.8
2022-09-24T04:06:13.711Z,11.8
2022-09-24T04:07:19.952Z,11.8
2022-09-24T04:08:26.197Z,11.8
2022-09-24T04:09:32.397Z,11.8
2022-09-24T04:10:38.614Z,11.8
2022-09-24T04:11:44.854Z,12.1
2022-09-24T04:12:51.087Z,12.1
2022-09-24T04:13:57.310Z,11.5
2022-09-24T04:15:03.534Z,12.5
2022-09-24T04:16:09.768Z,11.5
2022-09-24T04:17:15.992Z,11.5
2022-09-24T04:18:22.232Z,11.5
2022-09-24T04:19:28.457Z,11.8
2022-09-24T04:20:34.686Z,11.8
2022-09-24T04:21:40.935Z,11.5
2022-09-24T04:22:47.217Z,11.5
2022-09-24T04:23:53.588Z,11.5
2022-09-24T04:24:58.811Z,11.8
2022-09-24T04:26:05.043Z,11.2
2022-09-24T04:27:11.258Z,12.5
2022-09-24T04:28:17.486Z,12.1
2022-09-24T04:29:23.712Z,11.8
2022-09-24T04:30:29.927Z,11.5
2022-09-24T04:31:36.154Z,11.8
2022-09-24T04:32:42.464Z,11.8
2022-09-24T04:33:48.628Z,11.8
2022-09-24T04:34:54.813Z,12.1
2022-09-24T04:36:01.050Z,11.5
2022-09-24T04:37:07.268Z,12.1
2022-09-24T04:38:13.470Z,11.8
2022-09-24T04:39:19.726Z,12.1
2022-09-24T04:40:25.916Z,11.8
2022-09-24T04:41:32.140Z,12.1
2022-09-24T04:42:38.381Z,11.5
2022-09-24T04:43:44.588Z,11.5
2022-09-24T04:44:50.827Z,12.1
2022-09-24T04:45:57.050Z,11.8
2022-09-24T04:47:03.260Z,11.5
2022-09-24T04:48:09.500Z,12.1
2022-09-24T04:49:15.722Z,11.8
2022-09-24T04:50:21.962Z,11.5
2022-09-24T04:51:28.159Z,11.8
2022-09-24T04:52:34.520Z,11.5
2022-09-24T04:53:39.829Z,11.8
2022-09-24T04:54:46.132Z,12.1
2022-09-24T04:55:51.428Z,11.8
2022-09-24T04:56:57.646Z,12.5
2022-09-24T04:58:03.864Z,11.8
2022-09-24T04:59:10.097Z,11.8
2022-09-24T05:00:16.327Z,11.8
2022-09-24T05:01:22.555Z,11.5
2022-09-24T05:02:28.799Z,11.8
2022-09-24T05:03:35.008Z,11.8
2022-09-24T05:04:41.277Z,11.5
2022-09-24T05:05:47.465Z,12.1
2022-09-24T05:06:53.712Z,11.5
2022-09-24T05:07:59.925Z,11.8
2022-09-24T05:09:06.165Z,11.2
2022-09-24T05:10:12.381Z,12.1
2022-09-24T05:11:18.616Z,11.5
2022-09-24T05:12:24.835Z,11.8
2022-09-24T05:13:31.067Z,11.8
2022-09-24T05:14:37.336Z,11.8
2022-09-24T05:15:43.526Z,11.8
2022-09-24T05:16:49.761Z,11.5
2022-09-24T05:17:55.990Z,11.8
2022-09-24T05:19:02.226Z,11.5
2022-09-24T05:20:08.449Z,11.8
2022-09-24T05:21:14.681Z,10.9
2022-09-24T05:22:20.914Z,11.8
2022-09-24T05:23:27.231Z,11.8
2022-09-24T05:24:33.527Z,11.5
2022-09-24T05:25:38.816Z,12.1
2022-09-24T05:26:45.049Z,12.1
2022-09-24T05:27:51.289Z,12.1
2022-09-24T05:28:57.511Z,11.8
2022-09-24T05:30:03.734Z,11.8
2022-09-24T05:31:09.976Z,12.1
2022-09-24T05:32:16.185Z,12.1
2022-09-24T05:33:22.419Z,11.5
2022-09-24T05:34:28.638Z,11.8
2022-09-24T05:35:34.863Z,11.8
2022-09-24T05:36:41.088Z,11.5
2022-09-24T05:37:47.312Z,11.8
2022-09-24T05:38:53.534Z,11.8
2022-09-24T05:39:59.752Z,11.5
2022-09-24T05:41:05.978Z,11.5
2022-09-24T05:42:12.277Z,11.8
2022-09-24T05:43:18.444Z,12.5
2022-09-24T05:44:24.666Z,11.8
2022-09-24T05:45:30.905Z,11.5
2022-09-24T05:46:37.128Z,11.5
2022-09-24T05:47:43.359Z,11.2
2022-09-24T05:48:49.587Z,11.8
2022-09-24T05:49:55.802Z,11.8
2022-09-24T05:51:02.030Z,11.8
2022-09-24T05:52:08.263Z,12.1
2022-09-24T05:53:14.634Z,11.8
2022-09-24T05:54:19.928Z,11.2
2022-09-24T05:55:25.309Z,11.5
2022-09-24T05:56:30.563Z,11.5
2022-09-24T05:57:36.782Z,12.1
2022-09-24T05:58:43.049Z,11.8
2022-09-24T05:59:49.221Z,11.5
2022-09-24T06:00:55.441Z,11.8
2022-09-24T06:02:01.778Z,11.8
2022-09-24T06:03:07.886Z,11.8
2022-09-24T06:04:14.097Z,11.8
2022-09-24T06:05:20.343Z,11.8
2022-09-24T06:06:26.581Z,11.5
2022-09-24T06:07:32.804Z,11.8
2022-09-24T06:08:39.028Z,11.5
2022-09-24T06:09:45.208Z,11.8
2022-09-24T06:10:51.439Z,11.5
2022-09-24T06:11:57.643Z,12.1
2022-09-24T06:13:03.887Z,11.5
2022-09-24T06:14:10.083Z,11.5
2022-09-24T06:15:16.299Z,11.5
2022-09-24T06:16:22.517Z,11.8
2022-09-24T06:17:28.739Z,11.5
2022-09-24T06:18:34.978Z,11.5
2022-09-24T06:19:41.194Z,11.2
2022-09-24T06:20:47.398Z,11.5
2022-09-24T06:21:53.612Z,11.8
2022-09-24T06:22:59.825Z,11.5
2022-09-24T06:24:06.148Z,12.1
2022-09-24T06:25:11.392Z,11.8
2022-09-24T06:26:17.590Z,11.5
2022-09-24T06:27:23.791Z,11.8
2022-09-24T06:28:30.006Z,11.5
2022-09-24T06:29:36.208Z,11.8
2022-09-24T06:30:42.509Z,11.8
2022-09-24T06:31:48.618Z,11.5
2022-09-24T06:32:54.828Z,11.2
2022-09-24T06:34:01.012Z,11.5
2022-09-24T06:35:06.258Z,11.5
2022-09-24T06:36:11.419Z,11.5
2022-09-24T06:37:16.639Z,11.5
2022-09-24T06:38:21.834Z,11.5
2022-09-24T06:39:28.011Z,11.8
2022-09-24T06:40:34.193Z,11.8
2022-09-24T06:41:40.339Z,11.5
2022-09-24T06:42:46.490Z,11.8
2022-09-24T06:43:52.642Z,11.8
2022-09-24T06:44:58.822Z,11.8
2022-09-24T06:46:04.917Z,11.5
2022-09-24T06:47:11.055Z,11.5
2022-09-24T06:48:17.192Z,11.8
2022-09-24T06:49:23.317Z,11.5
2022-09-24T06:50:29.427Z,11.8
2022-09-24T06:51:35.575Z,11.8
2022-09-24T06:52:41.651Z,11.5
2022-09-24T06:53:47.780Z,11.2
2022-09-24T06:54:53.854Z,11.8
2022-09-24T06:55:59.944Z,12.1
2022-09-24T06:57:06.090Z,11.8
2022-09-24T06:58:12.137Z,11.5
2022-09-24T06:59:18.240Z,11.2
2022-09-24T07:00:24.344Z,11.2
2022-09-24T07:01:30.454Z,11.8
2022-09-24T07:02:36.580Z,12.1
2022-09-24T07:03:42.655Z,12.1
2022-09-24T07:04:48.749Z,11.5
2022-09-24T07:05:54.855Z,11.8
2022-09-24T07:07:00.947Z,11.5
2022-09-24T07:08:07.058Z,11.8
2022-09-24T07:09:13.168Z,11.5
2022-09-24T07:10:19.271Z,11.5
2022-09-24T07:11:25.370Z,12.1
2022-09-24T07:12:31.468Z,11.8
2022-09-24T07:13:37.575Z,11.8
2022-09-24T07:14:43.672Z,11.8
2022-09-24T07:15:49.794Z,11.8
2022-09-24T07:16:55.905Z,11.8
2022-09-24T07:18:02.007Z,11.5
2022-09-24T07:19:08.187Z,11.8
2022-09-24T07:20:13.349Z,11.5
2022-09-24T07:21:19.473Z,11.5
2022-09-24T07:22:25.574Z,11.5
2022-09-24T07:23:31.716Z,12.1
2022-09-24T07:24:37.857Z,11.8
2022-09-24T07:25:43.932Z,11.5
2022-09-24T07:26:50.064Z,12.5
2022-09-24T07:27:56.190Z,11.8
2022-09-24T07:29:02.309Z,12.1
2022-09-24T07:30:08.403Z,11.8
2022-09-24T07:31:14.577Z,11.5
2022-09-24T07:32:20.658Z,11.5
2022-09-24T07:33:26.784Z,11.8
2022-09-24T07:34:32.898Z,11.8
2022-09-24T07:35:38.050Z,11.8
2022-09-24T07:36:44.200Z,11.8
2022-09-24T07:37:50.314Z,11.5
2022-09-24T07:38:56.444Z,11.2
2022-09-24T07:40:01.607Z,11.8
2022-09-24T07:41:06.772Z,11.8
2022-09-24T07:42:11.927Z,11.5
2022-09-24T07:43:17.096Z,11.8
2022-09-24T07:44:22.284Z,11.5
2022-09-24T07:45:27.409Z,11.8
2022-09-24T07:46:32.579Z,11.5
2022-09-24T07:47:37.744Z,11.5
2022-09-24T07:48:43.867Z,11.8
2022-09-24T07:49:50.010Z,11.8
2022-09-24T07:50:56.156Z,12.1
2022-09-24T07:52:02.300Z,11.5
2022-09-24T07:53:08.437Z,12.1
2022-09-24T07:54:14.633Z,12.1
2022-09-24T07:55:20.726Z,11.8
2022-09-24T07:56:26.877Z,11.5
2022-09-24T07:57:33.026Z,12.1
2022-09-24T07:58:39.162Z,11.8
2022-09-24T07:59:45.297Z,11.8
2022-09-24T08:00:51.443Z,12.1
2022-09-24T08:01:57.590Z,11.5
2022-09-24T08:03:03.739Z,11.5
2022-09-24T08:04:09.892Z,11.5
2022-09-24T08:05:16.038Z,11.8
2022-09-24T08:06:22.167Z,11.8
2022-09-24T08:07:28.414Z,11.8
2022-09-24T08:08:34.457Z,11.8
2022-09-24T08:09:40.596Z,11.8
2022-09-24T08:10:45.775Z,11.8
2022-09-24T08:11:51.954Z,11.5
2022-09-24T08:12:58.048Z,11.8
2022-09-24T08:14:04.275Z,11.8
2022-09-24T08:15:10.457Z,11.8
2022-09-24T08:16:16.498Z,11.2
2022-09-24T08:17:22.702Z,11.5
2022-09-24T08:18:28.798Z,11.5
2022-09-24T08:19:34.943Z,11.8
2022-09-24T08:20:41.087Z,11.5
2022-09-24T08:21:47.332Z,11.8
2022-09-24T08:22:53.426Z,11.8
2022-09-24T08:23:59.529Z,11.5
2022-09-24T08:25:04.720Z,11.5
2022-09-24T08:26:10.824Z,11.5
2022-09-24T08:27:16.972Z,11.8
2022-09-24T08:28:23.169Z,12.1
2022-09-24T08:29:29.229Z,12.1
2022-09-24T08:30:35.330Z,11.8
2022-09-24T08:31:41.452Z,11.8
2022-09-24T08:32:47.616Z,11.8
2022-09-24T08:33:53.714Z,11.8
2022-09-24T08:34:59.845Z,11.8
2022-09-24T08:36:05.924Z,11.8
2022-09-24T08:37:12.032Z,11.8
2022-09-24T08:38:18.140Z,12.1
2022-09-24T08:39:24.297Z,11.5
2022-09-24T08:40:30.359Z,11.8
2022-09-24T08:41:36.534Z,11.5
2022-09-24T08:42:42.568Z,11.8
2022-09-24T08:43:48.658Z,12.1
2022-09-24T08:44:54.784Z,11.5
2022-09-24T08:46:00.872Z,11.8
2022-09-24T08:47:06.950Z,12.1
2022-09-24T08:48:13.092Z,12.1
2022-09-24T08:49:19.089Z,12.1
2022-09-24T08:50:25.246Z,11.8
2022-09-24T08:51:31.665Z,12.1
2022-09-24T08:52:37.422Z,11.2
2022-09-24T08:53:43.477Z,11.5
2022-09-24T08:54:49.712Z,11.5
2022-09-24T08:55:55.675Z,11.5
2022-09-24T08:57:01.782Z,11.8
2022-09-24T08:58:07.896Z,11.8
2022-09-24T08:59:13.972Z,11.5
2022-09-24T09:00:20.154Z,11.2
2022-09-24T09:01:26.205Z,11.5
2022-09-24T09:02:32.281Z,11.8
2022-09-24T09:03:38.377Z,12.1
2022-09-24T09:04:44.501Z,11.8
2022-09-24T09:05:50.670Z,11.8
2022-09-24T09:06:55.873Z,11.5
2022-09-24T09:08:02.043Z,11.5
2022-09-24T09:09:08.098Z,11.8
2022-09-24T09:10:14.160Z,11.5
2022-09-24T09:11:20.279Z,11.5
2022-09-24T09:12:26.413Z,12.1
2022-09-24T09:13:32.497Z,11.8
2022-09-24T09:14:38.616Z,11.8
2022-09-24T09:15:44.728Z,11.8
2022-09-24T09:16:50.858Z,11.5
2022-09-24T09:17:56.970Z,12.1
2022-09-24T09:19:03.113Z,12.1
2022-09-24T09:20:09.272Z,11.8
2022-09-24T09:21:15.414Z,11.8
2022-09-24T09:22:21.474Z,12.1
2022-09-24T09:23:27.629Z,12.1
2022-09-24T09:24:33.777Z,12.1
2022-09-24T09:25:39.894Z,11.8
2022-09-24T09:26:45.965Z,11.8
2022-09-24T09:27:52.131Z,12.1
2022-09-24T09:28:58.190Z,11.8
2022-09-24T09:30:04.302Z,12.1
2022-09-24T09:31:10.420Z,11.8
2022-09-24T09:32:16.585Z,12.1
2022-09-24T09:33:22.753Z,12.1
2022-09-24T09:34:28.880Z,11.8
2022-09-24T09:35:34.138Z,11.8
2022-09-24T09:36:39.426Z,12.1
2022-09-24T09:37:44.566Z,11.8
2022-09-24T09:38:50.717Z,11.8
2022-09-24T09:39:56.846Z,12.1
2022-09-24T09:41:02.952Z,12.1
2022-09-24T09:42:09.053Z,12.1
2022-09-24T09:43:15.208Z,11.8
2022-09-24T09:44:21.263Z,12.5
2022-09-24T09:45:27.376Z,12.5
2022-09-24T09:46:33.572Z,12.1
2022-09-24T09:47:39.600Z,11.8
2022-09-24T09:48:45.725Z,12.1
2022-09-24T09:49:51.814Z,12.1
2022-09-24T09:50:57.979Z,11.8
2022-09-24T09:52:04.047Z,11.8
2022-09-24T09:53:10.141Z,12.1
2022-09-24T09:54:16.266Z,11.8
2022-09-24T09:55:22.357Z,12.1
2022-09-24T09:56:28.453Z,11.8
2022-09-24T09:57:34.556Z,11.8
2022-09-24T09:58:40.656Z,12.1
2022-09-24T09:59:46.759Z,11.8
2022-09-24T10:00:52.852Z,12.1
2022-09-24T10:01:58.950Z,11.8
2022-09-24T10:03:05.078Z,11.8
2022-09-24T10:04:11.133Z,11.8
2022-09-24T10:05:17.309Z,12.1
2022-09-24T10:06:23.468Z,12.1
2022-09-24T10:07:29.675Z,11.8
2022-09-24T10:08:35.846Z,11.8
2022-09-24T10:09:41.998Z,12.5
2022-09-24T10:10:48.133Z,11.5
2022-09-24T10:11:54.326Z,11.8
2022-09-24T10:13:00.500Z,12.1
2022-09-24T10:14:06.611Z,12.5
2022-09-24T10:15:12.775Z,11.8
2022-09-24T10:16:18.960Z,12.1
2022-09-24T10:17:25.100Z,12.5
2022-09-24T10:18:31.295Z,12.1
2022-09-24T10:19:37.541Z,11.8
2022-09-24T10:20:42.797Z,11.8
2022-09-24T10:21:48.911Z,12.1
2022-09-24T10:22:54.941Z,12.1
2022-09-24T10:24:01.009Z,12.8
2022-09-24T10:25:07.086Z,12.1
2022-09-24T10:26:13.178Z,12.1
2022-09-24T10:27:19.219Z,12.5
2022-09-24T10:28:25.332Z,12.5
2022-09-24T10:29:31.357Z,11.8
2022-09-24T10:30:37.456Z,12.1
2022-09-24T10:31:43.499Z,11.8
2022-09-24T10:32:49.562Z,11.8
2022-09-24T10:33:55.709Z,12.1
2022-09-24T10:35:01.745Z,12.5
2022-09-24T10:36:07.812Z,12.1
2022-09-24T10:37:13.841Z,11.8
2022-09-24T10:38:19.904Z,12.1
2022-09-24T10:39:25.977Z,12.1
2022-09-24T10:40:32.094Z,12.1
2022-09-24T10:41:38.104Z,12.1
2022-09-24T10:42:44.202Z,11.8
2022-09-24T10:43:50.266Z,12.1
2022-09-24T10:44:56.308Z,12.1
2022-09-24T10:46:02.372Z,12.5
2022-09-24T10:47:08.439Z,11.8
2022-09-24T10:48:14.574Z,11.8
2022-09-24T10:49:20.733Z,11.8
2022-09-24T10:50:26.876Z,11.8
2022-09-24T10:51:33.013Z,12.1
2022-09-24T10:52:39.174Z,11.5
2022-09-24T10:53:45.307Z,12.1
2022-09-24T10:54:51.475Z,12.5
2022-09-24T10:55:57.605Z,12.5
2022-09-24T10:57:03.741Z,12.8
2022-09-24T10:58:09.880Z,12.5
2022-09-24T10:59:16.039Z,12.5
2022-09-24T11:00:22.154Z,12.5
2022-09-24T11:01:28.381Z,11.8
2022-09-24T11:02:34.591Z,12.1
2022-09-24T11:03:39.887Z,12.5
2022-09-24T11:04:45.857Z,11.8
2022-09-24T11:05:51.919Z,12.1
2022-09-24T11:06:57.980Z,12.5
2022-09-24T11:08:04.045Z,12.1
2022-09-24T11:09:10.110Z,12.1
2022-09-24T11:10:16.182Z,12.1
2022-09-24T11:11:22.249Z,12.1
2022-09-24T11:12:28.307Z,12.8
2022-09-24T11:13:34.469Z,12.5
2022-09-24T11:14:40.475Z,12.1
2022-09-24T11:15:46.516Z,11.8
2022-09-24T11:16:52.641Z,12.1
2022-09-24T11:17:58.636Z,12.1
2022-09-24T11:19:04.721Z,12.5
2022-09-24T11:20:10.769Z,12.5
2022-09-24T11:21:16.832Z,13.1
2022-09-24T11:22:22.901Z,12.8
2022-09-24T11:23:28.946Z,12.5
2022-09-24T11:24:35.000Z,12.8
2022-09-24T11:25:41.072Z,12.1
2022-09-24T11:26:47.122Z,12.1
2022-09-24T11:27:53.176Z,12.1
2022-09-24T11:28:59.234Z,12.5
2022-09-24T11:30:05.299Z,12.8
2022-09-24T11:31:11.423Z,12.5
2022-09-24T11:32:17.559Z,12.5
2022-09-24T11:33:23.697Z,12.1
2022-09-24T11:34:29.824Z,12.8
2022-09-24T11:35:35.956Z,12.5
2022-09-24T11:36:42.079Z,12.5
2022-09-24T11:37:48.207Z,12.1
2022-09-24T11:38:54.328Z,12.5
2022-09-24T11:40:00.521Z,12.5
2022-09-24T11:41:06.583Z,12.1
2022-09-24T11:42:12.717Z,12.8
2022-09-24T11:43:18.844Z,12.5
2022-09-24T11:44:25.014Z,12.8
2022-09-24T11:45:31.223Z,12.5
2022-09-24T11:46:36.423Z,12.5
2022-09-24T11:47:42.497Z,12.8
2022-09-24T11:48:48.568Z,12.8
2022-09-24T11:49:54.590Z,12.8
2022-09-24T11:51:00.644Z,12.8
2022-09-24T11:52:06.707Z,12.8
2022-09-24T11:53:12.785Z,13.1
2022-09-24T11:54:18.814Z,12.5
2022-09-24T11:55:24.877Z,13.4
2022-09-24T11:56:30.915Z,12.8
2022-09-24T11:57:36.967Z,12.8
2022-09-24T11:58:43.013Z,12.8
2022-09-24T11:59:49.053Z,12.5
2022-09-24T12:00:55.102Z,12.5
2022-09-24T12:02:01.154Z,12.5
2022-09-24T12:03:07.198Z,12.5
2022-09-24T12:04:13.268Z,13.1
2022-09-24T12:05:19.288Z,12.5
2022-09-24T12:06:25.346Z,13.1
2022-09-24T12:07:31.382Z,13.1
2022-09-24T12:08:37.436Z,13.1
2022-09-24T12:09:43.514Z,12.8
2022-09-24T12:10:49.586Z,13.1
2022-09-24T12:11:55.577Z,12.8
2022-09-24T12:13:01.614Z,12.8
2022-09-24T12:14:07.740Z,12.8
2022-09-24T12:15:13.857Z,12.8
2022-09-24T12:16:19.978Z,12.5
2022-09-24T12:17:26.104Z,13.4
2022-09-24T12:18:32.229Z,13.1
2022-09-24T12:19:38.362Z,13.4
2022-09-24T12:20:44.529Z,12.8
2022-09-24T12:21:50.626Z,12.8
2022-09-24T12:22:56.708Z,12.8
2022-09-24T12:24:02.827Z,12.8
2022-09-24T12:25:08.964Z,13.4
2022-09-24T12:26:15.067Z,13.1
2022-09-24T12:27:21.174Z,13.1
2022-09-24T12:28:27.410Z,13.4
2022-09-24T12:29:32.589Z,13.1
2022-09-24T12:30:38.635Z,13.1
2022-09-24T12:31:44.660Z,12.8
2022-09-24T12:32:50.694Z,13.1
2022-09-24T12:33:56.727Z,13.4
2022-09-24T12:35:02.763Z,13.4
2022-09-24T12:36:08.781Z,13.1
2022-09-24T12:37:14.820Z,13.1
2022-09-24T12:38:20.889Z,13.1
2022-09-24T12:39:26.903Z,13.1
2022-09-24T12:40:32.938Z,13.1
2022-09-24T12:41:38.992Z,13.1
2022-09-24T12:42:45.005Z,13.1
2022-09-24T12:43:51.076Z,13.1
2022-09-24T12:44:57.136Z,13.1
2022-09-24T12:46:03.203Z,12.8
2022-09-24T12:47:09.208Z,12.5
2022-09-24T12:48:15.272Z,12.8
2022-09-24T12:49:21.260Z,13.1
2022-09-24T12:50:27.315Z,12.8
2022-09-24T12:51:33.385Z,13.8
2022-09-24T12:52:39.405Z,13.1
2022-09-24T12:53:45.509Z,12.8
2022-09-24T12:54:51.528Z,13.1
2022-09-24T12:55:57.582Z,13.4
2022-09-24T12:57:03.668Z,13.4
2022-09-24T12:58:09.801Z,13.4
2022-09-24T12:59:15.920Z,13.4
2022-09-24T13:00:22.024Z,13.4
2022-09-24T13:01:28.138Z,13.1
2022-09-24T13:02:34.254Z,13.4
2022-09-24T13:03:40.382Z,13.1
2022-09-24T13:04:46.517Z,13.8
2022-09-24T13:05:52.620Z,13.1
2022-09-24T13:06:58.725Z,12.8
2022-09-24T13:08:04.860Z,13.1
2022-09-24T13:09:10.973Z,13.4
2022-09-24T13:10:17.070Z,13.1
2022-09-24T13:11:23.312Z,13.1
2022-09-24T13:12:28.529Z,13.1
2022-09-24T13:13:34.541Z,13.8
2022-09-24T13:14:40.578Z,13.8
2022-09-24T13:15:46.616Z,13.8
2022-09-24T13:16:52.668Z,13.8
2022-09-24T13:17:58.703Z,13.4
2022-09-24T13:19:04.747Z,13.8
2022-09-24T13:20:10.779Z,13.8
2022-09-24T13:21:16.829Z,13.4
2022-09-24T13:22:22.859Z,13.1
2022-09-24T13:23:28.901Z,14.1
2022-09-24T13:24:34.946Z,13.4
2022-09-24T13:25:40.978Z,13.8
2022-09-24T13:26:47.028Z,12.8
2022-09-24T13:27:53.076Z,13.1
2022-09-24T13:28:59.111Z,13.4
2022-09-24T13:30:05.162Z,13.4
2022-09-24T13:31:11.206Z,13.1
2022-09-24T13:32:17.255Z,13.1
2022-09-24T13:33:23.319Z,13.8
2022-09-24T13:34:29.354Z,13.4
2022-09-24T13:35:35.385Z,13.4
2022-09-24T13:36:41.438Z,13.4
2022-09-24T13:37:47.453Z,13.4
2022-09-24T13:38:53.506Z,13.1
2022-09-24T13:39:59.622Z,13.8
2022-09-24T13:41:05.758Z,13.4
2022-09-24T13:42:11.889Z,13.8
2022-09-24T13:43:17.997Z,13.4
2022-09-24T13:44:24.137Z,14.1
2022-09-24T13:45:30.270Z,13.4
2022-09-24T13:46:36.366Z,13.8
2022-09-24T13:47:42.534Z,13.4
2022-09-24T13:48:48.625Z,13.8
2022-09-24T13:49:54.791Z,13.8
2022-09-24T13:51:00.883Z,13.8
2022-09-24T13:52:07.016Z,13.1
2022-09-24T13:53:13.184Z,13.8
2022-09-24T13:54:19.443Z,13.1
2022-09-24T13:55:24.619Z,13.8
2022-09-24T13:56:30.666Z,13.1
2022-09-24T13:57:36.727Z,13.1
2022-09-24T13:58:42.780Z,13.4
2022-09-24T13:59:48.827Z,13.8
2022-09-24T14:00:54.958Z,13.8
2022-09-24T14:02:00.970Z,13.8
2022-09-24T14:03:07.012Z,13.4
2022-09-24T14:04:13.081Z,13.8
2022-09-24T14:05:19.128Z,14.1
2022-09-24T14:06:25.211Z,14.1
2022-09-24T14:07:31.265Z,13.4
2022-09-24T14:08:37.321Z,13.8
2022-09-24T14:09:43.420Z,14.1
2022-09-24T14:10:49.472Z,13.4
2022-09-24T14:11:55.559Z,14.1
2022-09-24T14:13:01.608Z,13.4
2022-09-24T14:14:07.691Z,13.4
2022-09-24T14:15:13.774Z,13.4
2022-09-24T14:16:19.843Z,13.8
2022-09-24T14:17:25.913Z,13.4
2022-09-24T14:18:32.001Z,13.4
2022-09-24T14:19:38.076Z,13.4
2022-09-24T14:20:44.170Z,14.1
2022-09-24T14:21:50.258Z,13.4
2022-09-24T14:22:56.407Z,14.1
2022-09-24T14:24:02.572Z,13.8
2022-09-24T14:25:08.728Z,13.4
2022-09-24T14:26:14.910Z,14.1
2022-09-24T14:27:21.061Z,13.4
2022-09-24T14:28:27.234Z,13.8
2022-09-24T14:29:33.406Z,13.4
2022-09-24T14:30:39.571Z,13.4
2022-09-24T14:31:45.745Z,14.1
2022-09-24T14:32:51.923Z,14.1
2022-09-24T14:33:58.082Z,13.8
2022-09-24T14:35:04.257Z,13.4
2022-09-24T14:36:10.468Z,13.8
2022-09-24T14:37:15.600Z,13.8
2022-09-24T14:38:21.739Z,13.4
2022-09-24T14:39:27.814Z,13.8